Home > Products > Valid Products > TAF

000
FTUS41 KCLE 250200 AAA
TAFCLE
TAF AMD
KCLE 250254Z 2503/2606 20004KT P6SM BKN035
      TEMPO 2508/2512 BKN020
     FM251300 21010KT P6SM SCT020 BKN080
     FM251600 23012G18KT P6SM -SHRA BKN020 OVC040
     FM252100 26015G22KT P6SM BKN025=



000
FTUS41 KCLE 250100 AAB
TAFTOL
TAF AMD
KTOL 250159Z 2502/2524 22004KT 6SM BR BKN035
      TEMPO 2503/2507 5SM BR
     FM250700 22006KT 4SM BR SCT020 BKN080
      TEMPO 2507/2511 BKN020
     FM251400 23012KT P6SM BKN012 OVC025
     FM251800 27015G22KT P6SM SCT025=



000
FTUS41 KCLE 250100 AAA
TAFTOL
TAF AMD
KTOL 250149Z 2502/2524 22004KT 6SM BR SCT035
      TEMPO 2502/2506 5SM BR
     FM250600 22006KT 4SM BR SCT020 BKN080
      TEMPO 2507/2511 BKN020
     FM251400 23012KT P6SM BKN012 OVC025
     FM251800 27015G22KT P6SM SCT025=



000
FTUS41 KCLE 250000 AAA
TAFERI
TAF AMD
KERI 250057Z 2501/2524 20006KT P6SM BKN040
     FM250900 21009KT P6SM BKN025
     FM251600 22014G20KT P6SM SCT025 BKN080
     FM251900 23015G22KT P6SM -SHRA BKN020 OVC040=



000
FTUS41 KCLE 242300
TAFERI
TAF
KERI 242330Z 2500/2524 23004KT P6SM SCT040
     FM250400 21007KT P6SM BKN035
     FM250900 21009KT P6SM BKN025
     FM251600 22014G20KT P6SM SCT025 BKN080
     FM251900 23015G22KT P6SM -SHRA BKN020 OVC040=



000
FTUS41 KCLE 242300
TAFMFD
TAF
KMFD 242330Z 2500/2524 23005KT P6SM BKN035
      TEMPO 2508/2512 5SM BR BKN018
     FM251300 22011KT P6SM SCT018 BKN080
     FM251600 23012G18KT P6SM BKN020 OVC040
     FM252100 26014G20KT P6SM SCT025=



000
FTUS41 KCLE 242300
TAFCLE
TAF
KCLE 242330Z 2500/2606 20005KT P6SM BKN035
      TEMPO 2508/2512 BKN020
     FM251300 21010KT P6SM SCT020 BKN080
     FM251600 23012G18KT P6SM -SHRA BKN020 OVC040
     FM252100 26015G22KT P6SM BKN025=



000
FTUS41 KCLE 242300
TAFTOL
TAF
KTOL 242330Z 2500/2524 22004KT P6SM SCT035
     FM250800 22006KT 6SM BR SCT020 BKN080
      TEMPO 2508/2512 5SM BR BKN020
     FM251400 23012KT P6SM BKN012 OVC025
     FM251800 27015G22KT P6SM SCT025=



000
FTUS41 KCLE 242300
TAFCAK
TAF
KCAK 242330Z 2500/2524 22004KT P6SM BKN035
      TEMPO 2509/2513 5SM BR BKN020
     FM251400 22010KT P6SM SCT020 BKN080
     FM251700 23012KT P6SM -SHRA BKN020 OVC040
     FM252200 26014KT P6SM BKN025=



000
FTUS41 KCLE 242300
TAFFDY
TAF
KFDY 242330Z 2500/2524 23005KT P6SM SCT035
     FM250800 22005KT 6SM BR SCT020 BKN080
      TEMPO 2508/2512 5SM BR BKN020
     FM251400 23012KT P6SM BKN012 OVC025
     FM251900 27015G22KT P6SM SCT025=



000
FTUS41 KCLE 242300
TAFYNG
TAF
KYNG 242330Z 2500/2524 25004KT P6SM SCT040
     FM250200 22004KT P6SM BKN035
      TEMPO 2508/2512 5SM BR BKN020
     FM251500 22010KT P6SM SCT020 BKN080
     FM251800 23012KT P6SM -SHRA BKN020 OVC040
     FM252300 26014KT P6SM BKN025=



000
FTUS41 KCLE 242100 AAA
TAFCAK
TAF AMD
KCAK 242102Z 2421/2518 25005KT P6SM SCT250
     FM250000 22004KT P6SM BKN040
     FM251200 21008KT P6SM BKN025
     FM251700 22012KT P6SM -SHRA OVC015=



000
FTUS41 KCLE 242100 AAB
TAFMFD
TAF AMD
KMFD 242100Z 2421/2518 24006KT P6SM BKN040
     FM250900 21007KT 5SM BR SCT012 BKN080
     FM251400 23011KT P6SM BKN012 OVC025=



000
FTUS41 KCLE 242000 AAA
TAFCLE
TAF AMD
KCLE 242058Z 2421/2524 24006KT P6SM SCT040
      TEMPO 2421/2424 BKN040
     FM250000 20005KT P6SM SCT040
     FM251100 21008KT P6SM BKN025
     FM251700 23012KT P6SM -SHRA BKN015 OVC025
     FM252200 26012KT P6SM SCT025=



000
FTUS41 KCLE 242000 AAA
TAFMFD
TAF AMD
KMFD 242052Z 2421/2518 24006KT P6SM SCT040
     FM250900 21007KT 5SM BR SCT012 BKN080
     FM251400 23011KT P6SM BKN012 OVC025=



000
FTUS41 KCLE 242000 AAA
TAFFDY
TAF AMD
KFDY 242049Z 2421/2518 22005KT P6SM SCT040
     FM250800 22005KT 4SM BR BKN080
     FM251400 23012KT P6SM BKN012 OVC025=



000
FTUS41 KCLE 242000 AAA
TAFTOL
TAF AMD
KTOL 242047Z 2421/2518 24008KT P6SM BKN040
     FM250000 22004KT P6SM SCT040
     FM250800 22006KT 4SM BR BKN080
     FM251400 23012KT P6SM BKN012 OVC025=



000
FTUS41 KCLE 241700
TAFCAK
TAF
KCAK 241733Z 2418/2518 31008KT P6SM SCT250
     FM250000 VRB03KT P6SM OVC050
     FM250600 21005KT P6SM OVC035
     FM251200 21008KT P6SM OVC025
     FM251700 22012KT P6SM -SHRA OVC015=



000
FTUS41 KCLE 241700
TAFYNG
TAF
KYNG 241733Z 2418/2518 25008KT P6SM SCT250
     FM250000 21004KT P6SM OVC050
     FM251200 18005KT P6SM OVC015=



000
FTUS41 KCLE 241700
TAFERI
TAF
KERI 241733Z 2418/2518 27008KT P6SM OVC025
     FM242000 25007KT P6SM SCT250
     FM250600 21007KT P6SM OVC035
     FM251200 21012KT P6SM OVC025=



000
FTUS41 KCLE 241700
TAFTOL
TAF
KTOL 241733Z 2418/2518 24008KT P6SM BKN040
     FM242200 22004KT P6SM SCT040
     FM250800 22006KT 4SM BR OVC250
     FM251200 22006KT 4SM BR OVC025
     FM251400 25010KT P6SM OVC007=



000
FTUS41 KCLE 241700
TAFFDY
TAF
KFDY 241733Z 2418/2518 27005KT P6SM OVC050
     FM242200 22005KT P6SM SCT050
     FM250800 22005KT 4SM BR OVC250
     FM251300 22006KT 4SM BR OVC025
     FM251500 25010KT P6SM OVC015=



000
FTUS41 KCLE 241700
TAFMFD
TAF
KMFD 241733Z 2418/2518 24006KT P6SM SKC
     FM250600 22006KT P6SM BKN050
     FM251200 21009KT 5SM BR OVC015
     FM251400 23011KT P6SM OVC015=



000
FTUS41 KCLE 241700
TAFCLE
TAF
KCLE 241733Z 2418/2524 24006KT P6SM SCT250
     FM250000 VRB03KT P6SM BKN100
     FM250600 21005KT P6SM OVC050
     FM251200 21008KT P6SM OVC025
     FM251400 22012KT P6SM OVC025
     FM251800 25012KT P6SM -SHRA OVC015
     FM252100 26012KT P6SM BKN250=



000
FTUS41 KCLE 241400 AAA
TAFTOL
TAF AMD
KTOL 241455Z 2415/2512 24004KT 5SM BR SCT035 BKN080
     FM241600 24006KT P6SM BKN040
     FM242200 22004KT P6SM SCT050
     FM250800 22006KT 4SM BR SCT003 OVC250=



000
FTUS41 KCLE 241400 AAA
TAFCLE
TAF AMD
KCLE 241453Z 2415/2518 22005KT P6SM SKC
     FM241900 24006KT P6SM SCT250
     FM242200 22004KT P6SM SCT060
     FM250900 20006KT P6SM BKN250
     FM251600 24012G20KT P6SM SCT035 BKN080=



000
FTUS41 KCLE 241100
TAFYNG
TAF
KYNG 241137Z 2412/2512 23004KT P6SM BKN250
     FM241400 26006KT P6SM SCT250
     FM241900 26006KT P6SM SCT060
     FM242200 22004KT P6SM SCT250=



000
FTUS41 KCLE 241100
TAFCLE
TAF
KCLE 241137Z 2412/2518 22004KT P6SM BKN250
     FM241500 24006KT P6SM BKN250
     FM241900 24006KT P6SM SCT250
     FM242200 22004KT P6SM SCT060
     FM250900 20006KT P6SM BKN250
     FM251600 24012G20KT P6SM SCT035 BKN080=



000
FTUS41 KCLE 241100
TAFCAK
TAF
KCAK 241137Z 2412/2512 VRB03KT P6SM BKN250
      TEMPO 2412/2414 4SM BR
     FM241400 25005KT P6SM BKN250
     FM241900 25007KT P6SM SCT250
     FM242200 23003KT P6SM SCT060
     FM251000 21006KT P6SM BKN250=



000
FTUS41 KCLE 241100
TAFERI
TAF
KERI 241137Z 2412/2512 25004KT P6SM BKN250
     FM241900 29006KT P6SM SCT250
     FM242200 23006KT P6SM SKC
     FM250900 21008KT P6SM SCT250=



000
FTUS41 KCLE 241100
TAFFDY
TAF
KFDY 241137Z 2412/2512 22003KT P6SM SCT100 BKN250
      TEMPO 2412/2414 3SM BR
     FM241400 24005KT P6SM SCT040 BKN100
     FM241800 24007KT P6SM BKN045
     FM242200 22005KT P6SM SCT050
     FM250800 22005KT 4SM BR SCT003 OVC250=



000
FTUS41 KCLE 241100
TAFTOL
TAF
KTOL 241137Z 2412/2512 00000KT 4SM BR SCT080 BKN250
      TEMPO 2412/2414 2SM BR
     FM241400 24004KT P6SM SCT035 BKN080
     FM241600 24006KT P6SM BKN040
     FM242200 22004KT P6SM SCT050
     FM250800 22006KT 4SM BR SCT003 OVC250=



000
FTUS41 KCLE 241100
TAFMFD
TAF
KMFD 241137Z 2412/2512 22003KT P6SM BKN250
      TEMPO 2412/2414 3SM BR
     FM241400 24006KT P6SM SCT100
     FM241800 24006KT P6SM SCT040
     FM242200 22004KT P6SM SCT060
     FM250800 20006KT 3SM BR SCT003 BKN250=



000
FTUS41 KCLE 240800 AAA
TAFCLE
TAF AMD
KCLE 240854Z 2409/2512 22004KT P6SM BKN250
     FM241500 24006KT P6SM SCT100
     FM241900 24006KT P6SM SCT040
     FM242200 22006KT P6SM SCT050=



000
FTUS41 KCLE 240800 AAA
TAFCAK
TAF AMD
KCAK 240803Z 2408/2506 00000KT 4SM BR BKN250
      TEMPO 2410/2414 2SM BR
     FM241400 25006KT P6SM SCT100
     FM241900 25006KT P6SM SCT040
     FM242200 25006KT P6SM SCT050=



000
FTUS41 KCLE 240800 AAA
TAFCAK
TAF AMD
KCAK 240803Z 2408/2506 00000KT 4SM BR BKN250
      TEMPO 2410/2414 2SM BR
     FM241400 25006KT P6SM SCT100
     FM241900 25006KT P6SM SCT040
     FM242200 25006KT P6SM SCT050=



000
FTUS41 KCLE 240800 AAA
TAFTOL
TAF AMD
KTOL 240802Z 2408/2506 00000KT 4SM BR SCT080 BKN250
      TEMPO 2410/2413 2SM BR
     FM241400 24004KT P6SM SCT035 BKN080
     FM241600 24006KT P6SM BKN040
     FM242100 24004KT P6SM SCT050=



000
FTUS41 KCLE 240500
TAFCLE
TAF
KCLE 240540Z 2406/2512 18004KT P6SM BKN250
     FM241500 24006KT P6SM SCT100
     FM241900 24006KT P6SM SCT040
     FM242200 22006KT P6SM SCT050=



000
FTUS41 KCLE 240500
TAFMFD
TAF
KMFD 240540Z 2406/2506 22004KT P6SM BKN250
      TEMPO 2406/2410 4SM BR
     FM241000 22004KT 4SM BR BKN250
      TEMPO 2411/2413 2SM BR
     FM241400 24006KT P6SM SCT100
     FM241800 24006KT P6SM SCT040
     FM242200 22004KT P6SM SCT050=



000
FTUS41 KCLE 240500
TAFYNG
TAF
KYNG 240540Z 2406/2506 29004KT P6SM BKN250
     FM241000 VRB04KT 4SM BR SCT010
      TEMPO 2410/2414 2SM BR BKN010
     FM241400 26006KT P6SM SCT250
     FM241900 26006KT P6SM SCT060
     FM242200 22004KT P6SM SKC=



000
FTUS41 KCLE 240500
TAFTOL
TAF
KTOL 240540Z 2406/2506 00000KT P6SM BKN250
     FM241000 00000KT 5SM BR SCT080
      TEMPO 2411/2413 2SM BR
     FM241400 24004KT P6SM SCT035 BKN080
     FM241600 24006KT P6SM BKN040
     FM242100 24004KT P6SM SCT050=



000
FTUS41 KCLE 240500
TAFCAK
TAF
KCAK 240540Z 2406/2506 00000KT 5SM BR BKN250
      TEMPO 2406/2410 2SM BR
     FM241000 VRB03KT 4SM BR BKN250
      TEMPO 2410/2414 2SM BR
     FM241400 25006KT P6SM SCT100
     FM241900 25006KT P6SM SCT040
     FM242200 25006KT P6SM SCT050=



000
FTUS41 KCLE 240500
TAFFDY
TAF
KFDY 240540Z 2406/2506 22003KT 6SM BR BKN250
      TEMPO 2406/2409 3SM BR
     FM240900 22003KT 3SM BR SCT100
      TEMPO 2410/2413 1 1/2SM BR
     FM241400 24005KT P6SM SCT040 BKN100
     FM241800 24007KT P6SM BKN045
     FM242200 22005KT P6SM SCT050=



000
FTUS41 KCLE 240500
TAFERI
TAF
KERI 240540Z 2406/2506 32005KT P6SM SCT015
      TEMPO 2406/2410 BKN015
     FM241200 25004KT P6SM BKN250
     FM241900 29006KT P6SM SCT060
     FM242200 22006KT P6SM SKC=



000
FTUS41 KCLE 240300 AAB
TAFYNG
TAF AMD
KYNG 240344Z 2404/2424 28006KT P6SM BKN200
     FM241000 VRB03KT 4SM BR BKN006
      TEMPO 2410/2414 2SM BR
     FM241500 26006KT P6SM FEW045 BKN150
     FM242300 26006KT P6SM BKN045 OVC100=



000
FTUS41 KCLE 240300 AAB
TAFYNG
TAF AMD
KYNG 240344Z 2404/2424 28006KT P6SM BKN200
     FM241000 VRB03KT 4SM BR BKN006
      TEMPO 2410/2414 2SM BR
     FM241500 26006KT P6SM FEW045 BKN150
     FM242300 26006KT P6SM BKN045 OVC100=



000
FTUS41 KCLE 240300 AAA
TAFFDY
TAF AMD
KFDY 240326Z 2403/2424 VRB03KT P6SM BKN200
     FM240900 00000KT 4SM BR BKN200
      TEMPO 2410/2413 2SM BR
     FM241500 24005KT P6SM SCT045 BKN150
     FM241800 25006KT P6SM BKN045 OVC100=



000
FTUS41 KCLE 240300 AAA
TAFFDY
TAF AMD
KFDY 240326Z 2403/2424 VRB03KT P6SM BKN200
     FM240900 00000KT 4SM BR BKN200
      TEMPO 2410/2413 2SM BR
     FM241500 24005KT P6SM SCT045 BKN150
     FM241800 25006KT P6SM BKN045 OVC100=



000
FTUS41 KCLE 240300 AAA
TAFTOL
TAF AMD
KTOL 240322Z 2403/2424 00000KT P6SM BKN200
     FM240900 00000KT 4SM BR BKN200
      TEMPO 2409/2413 2SM BR
     FM241400 25005KT P6SM SCT035 BKN150
     FM241600 25006KT P6SM BKN035 OVC100=



000
FTUS41 KCLE 240300 AAA
TAFTOL
TAF AMD
KTOL 240322Z 2403/2424 00000KT P6SM BKN200
     FM240900 00000KT 4SM BR BKN200
      TEMPO 2409/2413 2SM BR
     FM241400 25005KT P6SM SCT035 BKN150
     FM241600 25006KT P6SM BKN035 OVC100=



000
FTUS41 KCLE 240300 AAA
TAFCLE
TAF AMD
KCLE 240308Z 2403/2506 18004KT P6SM BKN200
     FM241500 25006KT P6SM FEW045 BKN150
     FM242100 25006KT P6SM BKN035 OVC100=



000
FTUS41 KCLE 240300 AAA
TAFCLE
TAF AMD
KCLE 240308Z 2403/2506 18004KT P6SM BKN200
     FM241500 25006KT P6SM FEW045 BKN150
     FM242100 25006KT P6SM BKN035 OVC100=



000
FTUS41 KCLE 240200 AAA
TAFCAK
TAF AMD
KCAK 240251Z 2403/2424 00000KT P6SM BKN200
     FM240700 00000KT 4SM BR BKN200
      TEMPO 2410/2414 2SM BR
     FM241500 26006KT P6SM FEW045 BKN150
     FM242200 26006KT P6SM BKN045 OVC100=



000
FTUS41 KCLE 240200 AAA
TAFCAK
TAF AMD
KCAK 240251Z 2403/2424 00000KT P6SM BKN200
     FM240700 00000KT 4SM BR BKN200
      TEMPO 2410/2414 2SM BR
     FM241500 26006KT P6SM FEW045 BKN150
     FM242200 26006KT P6SM BKN045 OVC100=



000
FTUS41 KCLE 240200 AAA
TAFMFD
TAF AMD
KMFD 240248Z 2403/2424 00000KT P6SM BKN200
     FM240700 00000KT 4SM BR BKN200
      TEMPO 2407/2410 2SM BR
     FM241000 00000KT 2SM BR BKN200
      TEMPO 2410/2414 1SM BR
     FM241500 24005KT P6SM FEW045 BKN150
     FM242200 25006KT P6SM BKN045 OVC100=



000
FTUS41 KCLE 240200 AAA
TAFMFD
TAF AMD
KMFD 240248Z 2403/2424 00000KT P6SM BKN200
     FM240700 00000KT 4SM BR BKN200
      TEMPO 2407/2410 2SM BR
     FM241000 00000KT 2SM BR BKN200
      TEMPO 2410/2414 1SM BR
     FM241500 24005KT P6SM FEW045 BKN150
     FM242200 25006KT P6SM BKN045 OVC100=



000
FTUS41 KCLE 240200 AAA
TAFYNG
TAF AMD
KYNG 240220Z 2402/2424 28006KT P6SM BKN200
     FM241000 VRB03KT 4SM BR BKN200
      TEMPO 2410/2414 2SM BR
     FM241500 26006KT P6SM FEW045 BKN150
     FM242300 26006KT P6SM BKN045 OVC100=



000
FTUS41 KCLE 240200 AAA
TAFYNG
TAF AMD
KYNG 240220Z 2402/2424 28006KT P6SM BKN200
     FM241000 VRB03KT 4SM BR BKN200
      TEMPO 2410/2414 2SM BR
     FM241500 26006KT P6SM FEW045 BKN150
     FM242300 26006KT P6SM BKN045 OVC100=



000
FTUS41 KCLE 240000 AAA
TAFERI
TAF AMD
KERI 240020Z 2400/2424 25005KT P6SM SCT045
     FM240600 25005KT P6SM BKN200
     FM241500 26006KT P6SM FEW045 BKN150
     FM242300 26006KT P6SM BKN045 OVC100=



000
FTUS41 KCLE 232300
TAFERI
TAF
KERI 232329Z 2400/2424 23005KT P6SM SCT250
     FM241500 26006KT P6SM FEW045 BKN150
     FM242300 26006KT P6SM BKN045 OVC100=



000
FTUS41 KCLE 232300
TAFCLE
TAF
KCLE 232329Z 2400/2506 27004KT P6SM BKN200
     FM241500 25006KT P6SM FEW045 BKN150
     FM242000 25006KT P6SM BKN045 OVC100=



000
FTUS41 KCLE 232300
TAFMFD
TAF
KMFD 232329Z 2400/2424 VRB03KT P6SM BKN200
     FM241500 24005KT P6SM FEW045 BKN150
     FM242200 25006KT P6SM BKN045 OVC100=



000
FTUS41 KCLE 232300
TAFTOL
TAF
KTOL 232329Z 2400/2424 VRB03KT P6SM BKN200
     FM241600 25006KT P6SM BKN045 OVC100=



000
FTUS41 KCLE 232300
TAFYNG
TAF
KYNG 232329Z 2400/2424 32006KT P6SM SCT250
     FM240200 VRB03KT P6SM BKN200
     FM241500 26006KT P6SM FEW045 BKN150
     FM242300 26006KT P6SM BKN045 OVC100=



000
FTUS41 KCLE 232300
TAFCAK
TAF
KCAK 232329Z 2400/2424 33006KT P6SM SCT250
     FM240200 VRB03KT P6SM BKN200
     FM241500 26006KT P6SM FEW045 BKN150
     FM242200 26006KT P6SM BKN045 OVC100=



000
FTUS41 KCLE 232300
TAFFDY
TAF
KFDY 232329Z 2400/2424 VRB03KT P6SM BKN200
      TEMPO 2412/2414 4SM BR
     FM241500 24005KT P6SM SCT045 BKN150
     FM241800 25006KT P6SM BKN045 OVC100=



000
FTUS41 KCLE 232100 AAA
TAFCLE
TAF AMD
KCLE 232108Z 2321/2424 30003KT P6SM FEW025
     FM240100 24005KT P6SM BKN250
     FM241500 24006KT P6SM SCT045 BKN150
     FM242000 26008KT P6SM BKN045=



000
FTUS41 KCLE 231900 AAA
TAFYNG
TAF AMD
KYNG 231926Z 2319/2418 33010KT P6SM BKN035
      TEMPO 2320/2321 SCT035
     FM232100 33006KT P6SM FEW035
     FM232300 32005KT P6SM SCT250
     FM241000 VRB03KT P6SM BKN100
     FM241600 25006KT P6SM SCT045 BKN100=



000
FTUS41 KCLE 231900 AAA
TAFYNG
TAF AMD
KYNG 231926Z 2319/2418 33010KT P6SM BKN035
      TEMPO 2320/2321 SCT035
     FM232100 33006KT P6SM FEW035
     FM232300 32005KT P6SM SCT250
     FM241000 VRB03KT P6SM BKN100
     FM241600 25006KT P6SM SCT045 BKN100=



000
FTUS41 KCLE 231900 AAA
TAFMFD
TAF AMD
KMFD 231924Z 2319/2418 33005KT P6SM FEW025
     FM232300 29003KT P6SM SCT250
     FM240800 VRB03KT P6SM BKN100
     FM241500 23006KT P6SM SCT045 BKN100=



000
FTUS41 KCLE 231900 AAA
TAFMFD
TAF AMD
KMFD 231924Z 2319/2418 33005KT P6SM FEW025
     FM232300 29003KT P6SM SCT250
     FM240800 VRB03KT P6SM BKN100
     FM241500 23006KT P6SM SCT045 BKN100=



000
FTUS41 KCLE 231700
TAFERI
TAF
KERI 231730Z 2318/2418 33007KT P6SM FEW025
     FM232300 32005KT P6SM SCT250
     FM241200 27004KT P6SM BKN100
     FM241600 23006KT P6SM SCT045 BKN100=



000
FTUS41 KCLE 231700
TAFYNG
TAF
KYNG 231730Z 2318/2418 33010KT P6SM SCT025
      TEMPO 2318/2321 BKN025
     FM232100 33006KT P6SM FEW025
     FM232300 32005KT P6SM SCT250
     FM241000 VRB03KT P6SM BKN100
     FM241600 25006KT P6SM SCT045 BKN100=



000
FTUS41 KCLE 231700
TAFCLE
TAF
KCLE 231730Z 2318/2424 33005KT P6SM BKN025
      TEMPO 2318/2320 SCT025
     FM232000 32005KT P6SM SCT025
     FM232300 31003KT P6SM SCT250
     FM240800 VRB03KT P6SM BKN100
     FM241500 24006KT P6SM SCT045 BKN100
     FM242000 26006KT P6SM BKN045=



000
FTUS41 KCLE 231700
TAFTOL
TAF
KTOL 231730Z 2318/2418 26005KT P6SM SCT025
      TEMPO 2318/2320 BKN025
     FM232000 26006KT P6SM SCT250
     FM232300 22003KT P6SM BKN250
     FM240600 VRB03KT P6SM BKN100
     FM241400 25004KT P6SM SCT045 BKN100=



000
FTUS41 KCLE 231700
TAFMFD
TAF
KMFD 231730Z 2318/2418 34005KT P6SM SCT025
      TEMPO 2318/2320 BKN025
     FM232300 29003KT P6SM SCT250
     FM240800 VRB03KT P6SM BKN100
     FM241500 23006KT P6SM SCT045 BKN100=



000
FTUS41 KCLE 231700
TAFFDY
TAF
KFDY 231730Z 2318/2418 28004KT P6SM SCT015
      TEMPO 2318/2320 BKN015
     FM232000 26006KT P6SM SCT250
     FM232300 23003KT P6SM BKN250
     FM240600 VRB03KT P6SM BKN100
     FM241400 25006KT P6SM SCT045 BKN100=



000
FTUS41 KCLE 231700
TAFCAK
TAF
KCAK 231730Z 2318/2418 34005KT P6SM BKN025
      TEMPO 2318/2320 SCT025
     FM232000 33005KT P6SM SCT025
     FM232300 32003KT P6SM SCT250
     FM240800 VRB03KT P6SM BKN100
     FM241500 26006KT P6SM SCT045 BKN100=



000
FTUS41 KCLE 231600 AAD
TAFFDY
TAF AMD
KFDY 231612Z 2316/2412 30003KT 1/4SM FG OVC001
     FM231700 27005KT P6SM SCT015
     FM231800 25005KT P6SM SCT250
     FM232300 22003KT P6SM BKN250=



000
FTUS41 KCLE 231500 AAD
TAFTOL
TAF AMD
KTOL 231515Z 2315/2412 VRB03KT P6SM BKN008
      TEMPO 2315/2316 SCT015
     FM231630 29006KT P6SM SCT015
     FM231800 29005KT P6SM SCT250
     FM232300 22003KT P6SM BKN250=



000
FTUS41 KCLE 231500 AAC
TAFMFD
TAF AMD
KMFD 231514Z 2315/2412 32008KT P6SM BKN008
      TEMPO 2315/2316 SCT015
     FM231600 31005KT P6SM SCT015
     FM231800 31005KT P6SM SCT250
     FM232300 29003KT P6SM BKN250=



000
FTUS41 KCLE 231500 AAC
TAFFDY
TAF AMD
KFDY 231509Z 2315/2412 30003KT 1/4SM FG OVC001
     FM231600 29005KT 3SM BR OVC002
     FM231700 27005KT P6SM SCT015
     FM231800 25005KT P6SM SCT250
     FM232300 22003KT P6SM BKN250=



000
FTUS41 KCLE 231400 AAA
TAFCLE
TAF AMD
KCLE 231445Z 2315/2418 32007KT P6SM BKN015
      TEMPO 2315/2317 SCT015
     FM231700 32007KT P6SM SCT025
     FM232200 29004KT P6SM BKN250
     FM240800 23004KT P6SM SCT100 BKN250
     FM241500 25007KT P6SM SCT025=



000
FTUS41 KCLE 231400 AAA
TAFCLE
TAF AMD
KCLE 231445Z 2315/2418 32007KT P6SM BKN015
      TEMPO 2315/2317 SCT015
     FM231700 32007KT P6SM SCT025
     FM232200 29004KT P6SM BKN250
     FM240800 23004KT P6SM SCT100 BKN250
     FM241500 25007KT P6SM SCT025=



000
FTUS41 KCLE 231400 AAB
TAFMFD
TAF AMD
KMFD 231401Z 2314/2412 32004KT P6SM OVC005
      TEMPO 2314/2315 SCT005 BKN015
     FM231500 31005KT P6SM SCT015
     FM231700 31005KT P6SM SCT250
     FM232300 29003KT P6SM BKN250=



000
FTUS41 KCLE 231300 AAB
TAFFDY
TAF AMD
KFDY 231400Z 2314/2412 30003KT 1/4SM FG OVC001
     FM231500 29005KT 3SM BR OVC002
     FM231600 27005KT P6SM SCT015
     FM231700 25005KT P6SM SCT250
     FM232300 22003KT P6SM BKN250=



000
FTUS41 KCLE 231300 AAB
TAFCAK
TAF AMD
KCAK 231358Z 2314/2412 32007KT 5SM BR OVC008
      TEMPO 2314/2315 SCT008 BKN015
     FM231500 32007KT P6SM SCT008 BKN015
     FM231600 32007KT P6SM SCT025
     FM231700 32005KT P6SM SCT035
     FM232200 29003KT P6SM BKN250=



000
FTUS41 KCLE 231300 AAC
TAFTOL
TAF AMD
KTOL 231331Z 2314/2412 VRB03KT 6SM BR SCT001
     FM231430 29005KT P6SM SCT250
     FM232300 22003KT P6SM BKN250=



000
FTUS41 KCLE 231300 AAA
TAFCAK
TAF AMD
KCAK 231314Z 2313/2412 32007KT 6SM BR SCT004 BKN015
      TEMPO 2313/2314 2SM BR OVC002
     FM231400 32007KT P6SM SCT002 BKN015
     FM231500 32007KT P6SM SCT025
     FM231700 32005KT P6SM SCT035
     FM232200 29003KT P6SM BKN250=



000
FTUS41 KCLE 231300 AAA
TAFYNG
TAF AMD
KYNG 231313Z 2313/2412 34007KT P6SM SCT015
      TEMPO 2313/2315 BKN015
     FM231600 33007KT P6SM BKN025
     FM231700 34007KT P6SM BKN035
     FM232300 VRB03KT P6SM SKC=



000
FTUS41 KCLE 231200 AAA
TAFMFD
TAF AMD
KMFD 231250Z 2313/2412 32004KT 5SM BR OVC002
      TEMPO 2313/2314 2SM BR SCT015
     FM231400 31005KT 3SM BR SCT002 BKN015
     FM231500 31005KT P6SM SCT015
     FM231700 31005KT P6SM SCT250
     FM232300 29003KT P6SM BKN250=



000
FTUS41 KCLE 231200 AAB
TAFTOL
TAF AMD
KTOL 231249Z 2313/2412 VRB03KT 5SM BR BKN001
      TEMPO 2313/2314 2SM BR SCT015
     FM231400 29005KT P6SM SCT250
     FM232300 22003KT P6SM BKN250=



000
FTUS41 KCLE 231200 AAA
TAFFDY
TAF AMD
KFDY 231248Z 2313/2412 30003KT 1/4SM FG OVC001
     FM231400 29005KT 1SM BR OVC002
     FM231430 28005KT 3SM BR SCT002 BKN015
     FM231500 27005KT P6SM SCT015
     FM231700 25005KT P6SM SCT250
     FM232300 22003KT P6SM BKN250=



000
FTUS41 KCLE 231200 AAA
TAFTOL
TAF AMD
KTOL 231247Z 2313/2412 VRB03KT 1/4SM FG BKN001
      TEMPO 2313/2314 1 1/2SM BR SCT015
     FM231400 29005KT P6SM SCT250
     FM232300 22003KT P6SM BKN250=



000
FTUS41 KCLE 231100
TAFCLE
TAF
KCLE 231139Z 2312/2418 32005KT P6SM SCT018
      TEMPO 2312/2314 BKN018
     FM231400 32007KT P6SM SCT025
     FM231700 32007KT P6SM SCT250
     FM232200 29004KT P6SM BKN250
     FM240800 23004KT P6SM SCT100 BKN250
     FM241500 25007KT P6SM SCT025=



000
FTUS41 KCLE 231100
TAFYNG
TAF
KYNG 231139Z 2312/2412 34007KT P6SM SCT003 BKN015
      TEMPO 2312/2314 4SM BR BKN003
     FM231600 33007KT P6SM BKN025
     FM231700 34007KT P6SM BKN035
     FM232300 VRB03KT P6SM SKC=



000
FTUS41 KCLE 231100
TAFFDY
TAF
KFDY 231139Z 2312/2412 30003KT 1/2SM FG OVC001
     FM231330 29005KT 1SM BR OVC002
     FM231430 28005KT 3SM BR SCT002 BKN015
     FM231500 27005KT P6SM SCT015
     FM231700 25005KT P6SM SCT250
     FM232300 22003KT P6SM BKN250=



000
FTUS41 KCLE 231100
TAFTOL
TAF
KTOL 231139Z 2312/2412 VRB03KT 3SM BR BKN002
      TEMPO 2312/2313 1 1/2SM BR
     FM231400 29005KT P6SM SCT250
     FM232300 22003KT P6SM BKN250=



000
FTUS41 KCLE 231100
TAFMFD
TAF
KMFD 231139Z 2312/2412 32004KT 2SM BR OVC002
      TEMPO 2312/2313 3/4SM BR OVC002
     FM231400 31005KT 3SM BR SCT002 BKN015
     FM231500 31005KT P6SM SCT015
     FM231700 31005KT P6SM SCT250
     FM232300 29003KT P6SM BKN250=



000
FTUS41 KCLE 231100
TAFCAK
TAF
KCAK 231139Z 2312/2412 32007KT 5SM BR SCT002 BKN015
      TEMPO 2312/2314 2SM BR OVC002
     FM231400 32007KT P6SM SCT002 BKN015
     FM231500 32007KT P6SM SCT025
     FM231700 32005KT P6SM SCT035
     FM232200 29003KT P6SM BKN250=



000
FTUS41 KCLE 231100
TAFERI
TAF
KERI 231139Z 2312/2412 36008KT P6SM SCT025
     FM231600 34008KT P6SM SKC
     FM232300 32004KT P6SM SCT250=



000
FTUS41 KCLE 231000 AAB
TAFFDY
TAF AMD
KFDY 231018Z 2310/2406 28003KT 3SM BR SCT003
      TEMPO 2310/2313 1SM BR BKN003
     FM231400 28005KT P6SM SCT250
     FM232300 22003KT P6SM BKN250=



000
FTUS41 KCLE 231000 AAB
TAFFDY
TAF AMD
KFDY 231018Z 2310/2406 28003KT 3SM BR SCT003
      TEMPO 2310/2313 1SM BR BKN003
     FM231400 28005KT P6SM SCT250
     FM232300 22003KT P6SM BKN250=



000
FTUS41 KCLE 231000 AAA
TAFERI
TAF AMD
KERI 231007Z 2310/2406 36008KT P6SM SCT025 BKN035
      TEMPO 2310/2312 BKN025
     FM231200 36008KT P6SM SCT025
     FM231600 32008KT P6SM SKC
     FM232300 32004KT P6SM SCT250=



000
FTUS41 KCLE 231000 AAB
TAFMFD
TAF AMD
KMFD 231006Z 2310/2406 31004KT 3SM BR SCT003
      TEMPO 2310/2313 3/4SM BR OVC003
     FM231400 33006KT P6SM SCT035
     FM232200 VRB04KT P6SM BKN250=



000
FTUS41 KCLE 230900 AAA
TAFMFD
TAF AMD
KMFD 230920Z 2309/2406 31004KT P6SM SCT007
      TEMPO 2309/2313 4SM BR OVC007
     FM231400 33006KT P6SM SCT035
     FM232200 VRB04KT P6SM BKN250=



000
FTUS41 KCLE 230900 AAA
TAFFDY
TAF AMD
KFDY 230918Z 2309/2406 28003KT 4SM BR SCT025
      TEMPO 2309/2313 1SM BR BKN025
     FM231400 28005KT P6SM SCT250
     FM232300 22003KT P6SM BKN250=



000
FTUS41 KCLE 230800 AAA
TAFCLE
TAF AMD
KCLE 230856Z 2309/2412 34005KT P6SM SCT018
      TEMPO 2309/2312 BKN018
     FM231500 34007KT P6SM SCT035
     FM231700 32007KT P6SM SCT250
     FM232200 29004KT P6SM BKN250
     FM240800 23004KT P6SM SCT100 BKN250=



000
FTUS41 KCLE 230500
TAFMFD
TAF
KMFD 230537Z 2306/2406 33004KT P6SM SCT015 BKN035
      TEMPO 2306/2310 BKN015
     FM231400 33006KT P6SM SCT035
     FM232200 VRB04KT P6SM BKN250=



000
FTUS41 KCLE 230500
TAFTOL
TAF
KTOL 230537Z 2306/2406 VRB03KT P6SM SKC
      TEMPO 2309/2311 3SM BR
     FM231100 VRB03KT 3SM BR SCT003
      TEMPO 2311/2313 1 1/2SM BR BKN003
     FM231400 29005KT P6SM SCT250
     FM232300 22003KT P6SM BKN250=



000
FTUS41 KCLE 230500
TAFCAK
TAF
KCAK 230537Z 2306/2406 34005KT P6SM BKN035
     FM231300 34007KT P6SM BKN015 BKN035
     FM231700 34007KT P6SM BKN035
     FM232100 32005KT P6SM SCT040
     FM240000 VRB03KT P6SM SKC=



000
FTUS41 KCLE 230500
TAFYNG
TAF
KYNG 230537Z 2306/2406 34005KT P6SM BKN035
     FM231200 34007KT P6SM BKN015 BKN035
     FM231700 34007KT P6SM BKN035
     FM232300 VRB03KT P6SM SKC=



000
FTUS41 KCLE 230500
TAFFDY
TAF
KFDY 230537Z 2306/2406 29004KT P6SM BKN030
     FM230800 VRB03KT P6SM SKC
      TEMPO 2311/2314 4SM BR
     FM231500 28005KT P6SM SCT250
     FM232300 22003KT P6SM BKN250=



000
FTUS41 KCLE 230500
TAFCLE
TAF
KCLE 230537Z 2306/2412 36007KT P6SM SCT018 BKN035
      TEMPO 2306/2310 BKN018
     FM231500 34007KT P6SM SCT035
     FM231700 32007KT P6SM SCT250
     FM232200 29004KT P6SM BKN250
     FM240800 23004KT P6SM SCT100 BKN250=



000
FTUS41 KCLE 230500
TAFERI
TAF
KERI 230537Z 2306/2406 36006KT P6SM SCT025 BKN035
      TEMPO 2306/2310 BKN025
     FM231200 36006KT P6SM SCT035
     FM231600 32008KT P6SM SKC
     FM232300 32004KT P6SM SCT250=



000
FTUS41 KCLE 230300 AAB
TAFERI
TAF AMD
KERI 230341Z 2304/2324 VRB03KT P6SM SCT020 OVC035
      TEMPO 2305/2309 BKN020
     FM231400 36005KT P6SM SCT035=



000
FTUS41 KCLE 230300 AAB
TAFERI
TAF AMD
KERI 230341Z 2304/2324 VRB03KT P6SM SCT020 OVC035
      TEMPO 2305/2309 BKN020
     FM231400 36005KT P6SM SCT035=



000
FTUS41 KCLE 230300 AAB
TAFYNG
TAF AMD
KYNG 230339Z 2304/2324 33005KT P6SM SCT018 OVC035
      TEMPO 2306/2310 OVC018
     FM231600 33006KT P6SM SCT035=



000
FTUS41 KCLE 230300 AAB
TAFYNG
TAF AMD
KYNG 230339Z 2304/2324 33005KT P6SM SCT018 OVC035
      TEMPO 2306/2310 OVC018
     FM231600 33006KT P6SM SCT035=



000
FTUS41 KCLE 230300 AAB
TAFCAK
TAF AMD
KCAK 230338Z 2304/2324 34005KT P6SM SCT015 OVC035
      TEMPO 2308/2311 BKN015
     FM231500 33006KT P6SM SCT035=



000
FTUS41 KCLE 230300 AAB
TAFCAK
TAF AMD
KCAK 230338Z 2304/2324 34005KT P6SM SCT015 OVC035
      TEMPO 2308/2311 BKN015
     FM231500 33006KT P6SM SCT035=



000
FTUS41 KCLE 230300 AAA
TAFCLE
TAF AMD
KCLE 230327Z 2303/2406 36006KT P6SM SCT015 BKN035
      TEMPO 2303/2306 BKN015
     FM231300 34005KT P6SM SCT035
     FM231700 32008KT P6SM SCT250=



000
FTUS41 KCLE 230300 AAA
TAFMFD
TAF AMD
KMFD 230326Z 2303/2324 33005KT P6SM OVC035
     FM230700 32004KT P6SM SCT015 BKN035
      TEMPO 2307/2311 BKN015
     FM231400 32005KT P6SM FEW035 SCT250=



000
FTUS41 KCLE 230300 AAB
TAFFDY
TAF AMD
KFDY 230315Z 2303/2324 29004KT P6SM BKN035
     FM230900 VRB03KT P6SM SKC
      TEMPO 2311/2314 4SM BR
     FM231500 28005KT P6SM SCT250=



000
FTUS41 KCLE 230200 AAA
TAFYNG
TAF AMD
KYNG 230215Z 2302/2324 33005KT P6SM BKN035
     FM231500 33006KT P6SM SCT035=



000
FTUS41 KCLE 230200 AAA
TAFYNG
TAF AMD
KYNG 230215Z 2302/2324 33005KT P6SM BKN035
     FM231500 33006KT P6SM SCT035=



000
FTUS41 KCLE 230100 AAA
TAFTOL
TAF AMD
KTOL 230128Z 2301/2324 29004KT P6SM BKN035
     FM230230 29004KT P6SM SCT035
     FM230500 VRB03KT P6SM SKC
      TEMPO 2311/2314 4SM BR
     FM231500 27005KT P6SM SCT250=



000
FTUS41 KCLE 230100 AAA
TAFTOL
TAF AMD
KTOL 230128Z 2301/2324 29004KT P6SM BKN035
     FM230230 29004KT P6SM SCT035
     FM230500 VRB03KT P6SM SKC
      TEMPO 2311/2314 4SM BR
     FM231500 27005KT P6SM SCT250=



000
FTUS41 KCLE 230000 AAA
TAFFDY
TAF AMD
KFDY 230019Z 2300/2324 29004KT P6SM SCT035
     FM230100 29004KT P6SM BKN035
     FM230400 02004KT P6SM SKC
      TEMPO 2311/2314 4SM BR
     FM231500 28005KT P6SM SCT250=



000
FTUS41 KCLE 230000 AAA
TAFFDY
TAF AMD
KFDY 230019Z 2300/2324 29004KT P6SM SCT035
     FM230100 29004KT P6SM BKN035
     FM230400 02004KT P6SM SKC
      TEMPO 2311/2314 4SM BR
     FM231500 28005KT P6SM SCT250=



000
FTUS41 KCLE 230000 AAA
TAFCAK
TAF AMD
KCAK 230008Z 2300/2324 36005KT P6SM BKN035
      TEMPO 2301/2304 SCT035
     FM231400 33006KT P6SM SCT035=



000
FTUS41 KCLE 230000 AAA
TAFCAK
TAF AMD
KCAK 230008Z 2300/2324 36005KT P6SM BKN035
      TEMPO 2301/2304 SCT035
     FM231400 33006KT P6SM SCT035=



000
FTUS41 KCLE 230000 AAA
TAFERI
TAF AMD
KERI 230005Z 2300/2324 01005KT P6SM BKN035
     FM231400 36005KT P6SM SCT035=



000
FTUS41 KCLE 230000 AAA
TAFERI
TAF AMD
KERI 230005Z 2300/2324 01005KT P6SM BKN035
     FM231400 36005KT P6SM SCT035=



000
FTUS41 KCLE 222300
TAFYNG
TAF
KYNG 222338Z 2300/2324 35006KT P6SM SCT018
     FM230300 35005KT P6SM BKN018
     FM231500 33006KT P6SM SCT025=



000
FTUS41 KCLE 222300
TAFCLE
TAF
KCLE 222338Z 2300/2406 36005KT P6SM BKN035
     FM231100 34005KT P6SM SCT035
     FM231700 32008KT P6SM SCT250=



000
FTUS41 KCLE 222300
TAFERI
TAF
KERI 222338Z 2300/2324 01005KT P6SM BKN020
     FM231400 36005KT P6SM SCT025=



000
FTUS41 KCLE 222300
TAFCAK
TAF
KCAK 222338Z 2300/2324 36005KT P6SM BKN030
      TEMPO 2301/2304 SCT030
     FM231400 33006KT P6SM SCT035=



000
FTUS41 KCLE 222300
TAFFDY
TAF
KFDY 222338Z 2300/2324 29004KT P6SM SCT030
     FM230400 02004KT P6SM SKC
      TEMPO 2311/2314 4SM BR
     FM231500 28005KT P6SM SCT250=



000
FTUS41 KCLE 222300
TAFTOL
TAF
KTOL 222338Z 2300/2324 29004KT P6SM BKN035
     FM230100 29004KT P6SM SCT035
     FM230400 VRB03KT P6SM SKC
      TEMPO 2311/2314 4SM BR
     FM231500 27005KT P6SM SCT250=



000
FTUS41 KCLE 222300
TAFMFD
TAF
KMFD 222338Z 2300/2324 34005KT P6SM OVC035
     FM230900 32004KT 4SM BR SCT035
     FM231400 32005KT P6SM SCT250=



000
FTUS41 KCLE 222200 AAA
TAFERI
TAF AMD
KERI 222256Z 2223/2318 01006KT P6SM BKN035
     FM231400 36005KT P6SM SCT035=



000
FTUS41 KCLE 222200 AAA
TAFERI
TAF AMD
KERI 222256Z 2223/2318 01006KT P6SM BKN035
     FM231400 36005KT P6SM SCT035=



000
FTUS41 KCLE 222200 AAA
TAFYNG
TAF AMD
KYNG 222247Z 2223/2318 35006KT P6SM OVC028
     FM231400 33006KT P6SM SCT035=



000
FTUS41 KCLE 222200 AAA
TAFYNG
TAF AMD
KYNG 222247Z 2223/2318 35006KT P6SM OVC028
     FM231400 33006KT P6SM SCT035=



000
FTUS41 KCLE 222200 AAA
TAFCAK
TAF AMD
KCAK 222244Z 2223/2318 36005KT P6SM OVC028
     FM231400 33006KT P6SM SCT035=



000
FTUS41 KCLE 222200 AAA
TAFCAK
TAF AMD
KCAK 222244Z 2223/2318 36005KT P6SM OVC028
     FM231400 33006KT P6SM SCT035=



000
FTUS41 KCLE 222200 AAA
TAFMFD
TAF AMD
KMFD 222224Z 2222/2318 36005KT P6SM OVC030
     FM230900 32004KT 4SM BR SCT030
     FM231400 32005KT P6SM SCT250=



000
FTUS41 KCLE 222200 AAB
TAFCLE
TAF AMD
KCLE 222203Z 2222/2324 36006KT P6SM BKN035
     FM230900 34005KT P6SM SCT035
     FM231400 32008KT P6SM SCT250=



000
FTUS41 KCLE 222100 AAA
TAFCLE
TAF AMD
KCLE 222114Z 2221/2324 36008KT P6SM SCT030
     FM222330 01008KT P6SM BKN035
     FM230800 35005KT P6SM SCT035
     FM231400 32008KT P6SM SCT250=



000
FTUS41 KCLE 221700
TAFCAK
TAF
KCAK 221731Z 2218/2318 01011KT P6SM OVC015
     FM222000 36011KT P6SM OVC025
     FM222300 36010KT P6SM BKN030
     FM230000 36010KT P6SM BKN035
     FM230300 36004KT P6SM SCT035
     FM230900 33005KT 5SM BR SCT040=



000
FTUS41 KCLE 221700
TAFTOL
TAF
KTOL 221731Z 2218/2318 36010KT P6SM OVC024
     FM222000 36010KT P6SM BKN030
     FM222200 02010KT P6SM SCT035
     FM230000 02006KT P6SM SKC
     FM230200 VRB03KT P6SM SKC=



000
FTUS41 KCLE 221700
TAFERI
TAF
KERI 221731Z 2218/2318 02012KT P6SM OVC018
     FM222000 02012KT P6SM OVC025
     FM222200 02010KT P6SM BKN030
     FM230000 02010KT P6SM BKN035
     FM230200 36007KT P6SM BKN040
     FM230600 34005KT P6SM SCT040=



000
FTUS41 KCLE 221700
TAFCLE
TAF
KCLE 221731Z 2218/2324 01012KT P6SM OVC018
     FM222000 01012KT P6SM OVC025
     FM222200 01010KT P6SM BKN035
     FM230000 01008KT P6SM SCT040
     FM230600 01005KT P6SM SCT035
     FM231400 32008KT P6SM SCT250=



000
FTUS41 KCLE 221700
TAFMFD
TAF
KMFD 221731Z 2218/2318 34010KT 6SM BR OVC015
     FM222000 35010KT P6SM OVC020
     FM222200 35010KT P6SM BKN025
     FM230000 36008KT P6SM BKN035
     FM230200 34004KT P6SM SKC
     FM230900 VRB04KT 3SM BR SKC=



000
FTUS41 KCLE 221700
TAFYNG
TAF
KYNG 221731Z 2218/2318 36010KT P6SM OVC015
     FM222000 36010KT P6SM OVC025
     FM222200 36010KT P6SM OVC028
     FM230000 36008KT P6SM BKN030
     FM230200 34005KT P6SM BKN035
     FM230600 33005KT P6SM SCT035=



000
FTUS41 KCLE 221700
TAFFDY
TAF
KFDY 221731Z 2218/2318 36010KT P6SM OVC018
     FM222000 36010KT P6SM OVC025
     FM222200 02010KT P6SM BKN035
     FM230000 02010KT P6SM SCT035
     FM230200 02004KT P6SM SKC=



000
FTUS41 KCLE 221700
TAFCAK
TAF
KCAK 221731Z 2218/2318 01011KT P6SM OVC015
     FM222000 36011KT P6SM OVC025
     FM222300 36010KT P6SM BKN030
     FM230000 36010KT P6SM BKN035
     FM230300 36004KT P6SM SCT035
     FM230900 33005KT 5SM BR SCT040=



000
FTUS41 KCLE 221700
TAFTOL
TAF
KTOL 221731Z 2218/2318 36010KT P6SM OVC024
     FM222000 36010KT P6SM BKN030
     FM222200 02010KT P6SM SCT035
     FM230000 02006KT P6SM SKC
     FM230200 VRB03KT P6SM SKC=



000
FTUS41 KCLE 221700
TAFCLE
TAF
KCLE 221731Z 2218/2324 01012KT P6SM OVC018
     FM222000 01012KT P6SM OVC025
     FM222200 01010KT P6SM BKN035
     FM230000 01008KT P6SM SCT040
     FM230600 01005KT P6SM SCT035
     FM231400 32008KT P6SM SCT250=



000
FTUS41 KCLE 221700
TAFYNG
TAF
KYNG 221731Z 2218/2318 36010KT P6SM OVC015
     FM222000 36010KT P6SM OVC025
     FM222200 36010KT P6SM OVC028
     FM230000 36008KT P6SM BKN030
     FM230200 34005KT P6SM BKN035
     FM230600 33005KT P6SM SCT035=



000
FTUS41 KCLE 221700
TAFERI
TAF
KERI 221731Z 2218/2318 02012KT P6SM OVC018
     FM222000 02012KT P6SM OVC025
     FM222200 02010KT P6SM BKN030
     FM230000 02010KT P6SM BKN035
     FM230200 36007KT P6SM BKN040
     FM230600 34005KT P6SM SCT040=



000
FTUS41 KCLE 221700
TAFMFD
TAF
KMFD 221731Z 2218/2318 34010KT 6SM BR OVC015
     FM222000 35010KT P6SM OVC020
     FM222200 35010KT P6SM BKN025
     FM230000 36008KT P6SM BKN035
     FM230200 34004KT P6SM SKC
     FM230900 VRB04KT 3SM BR SKC=



000
FTUS41 KCLE 221700
TAFFDY
TAF
KFDY 221731Z 2218/2318 36010KT P6SM OVC018
     FM222000 36010KT P6SM OVC025
     FM222200 02010KT P6SM BKN035
     FM230000 02010KT P6SM SCT035
     FM230200 02004KT P6SM SKC=



000
FTUS41 KCLE 221500 AAA
TAFTOL
TAF AMD
KTOL 221527Z 2215/2312 36010KT P6SM OVC018
     FM221800 36010KT P6SM BKN030
     FM221930 02010KT P6SM SCT035
     FM230000 02006KT P6SM SKC
     FM230200 VRB03KT P6SM SKC=



000
FTUS41 KCLE 221500 AAA
TAFFDY
TAF AMD
KFDY 221524Z 2215/2312 36010KT P6SM OVC018
     FM221800 36010KT P6SM OVC025
     FM221900 02010KT P6SM BKN035
     FM222000 02010KT P6SM SCT035
     FM222300 02004KT P6SM SKC=



000
FTUS41 KCLE 221500 AAA
TAFMFD
TAF AMD
KMFD 221523Z 2215/2312 34010KT 6SM BR OVC005
     FM221700 34010KT P6SM OVC010
     FM221800 36010KT P6SM OVC018
     FM222000 36010KT P6SM BKN025
     FM222200 36008KT P6SM BKN035
     FM230000 34004KT P6SM SKC
     FM230900 VRB04KT 3SM BR SKC=



000
FTUS41 KCLE 221500 AAA
TAFCAK
TAF AMD
KCAK 221519Z 2215/2312 36011KT P6SM OVC008
     FM221700 36011KT P6SM OVC010
     FM221800 36010KT P6SM OVC025
     FM222000 36010KT P6SM BKN035
     FM222300 36004KT P6SM SCT035=



000
FTUS41 KCLE 221500 AAA
TAFCLE
TAF AMD
KCLE 221517Z 2215/2318 01012G15KT P6SM OVC015
     FM221800 01012KT P6SM OVC025
     FM222000 01012KT P6SM BKN035
     FM222300 01006KT P6SM SCT035
     FM231400 32008KT P6SM SCT250=



000
FTUS41 KCLE 221100
TAFERI
TAF
KERI 221139Z 2212/2312 02012G20KT P6SM OVC012
     FM221600 02010KT P6SM OVC025
     FM221800 02010KT P6SM BKN035
     FM230100 36007KT P6SM BKN035=



000
FTUS41 KCLE 221100
TAFCLE
TAF
KCLE 221139Z 2212/2318 01010KT P6SM OVC015
     FM221500 01010KT P6SM OVC025
     FM221700 01010KT P6SM BKN035
     FM222300 01006KT P6SM SCT035
     FM231400 32008KT P6SM SCT250=



000
FTUS41 KCLE 221100
TAFTOL
TAF
KTOL 221139Z 2212/2312 36006KT P6SM OVC025
     FM221400 36008KT P6SM BKN025
     FM221630 02008KT P6SM SCT035
     FM222000 02006KT P6SM SKC
     FM230100 VRB03KT P6SM SKC=



000
FTUS41 KCLE 221100
TAFCAK
TAF
KCAK 221139Z 2212/2312 36010KT P6SM OVC007
     FM221430 36010KT P6SM OVC012
     FM221700 36010KT P6SM OVC025
     FM222000 36010KT P6SM BKN035
     FM222300 36004KT P6SM SCT035=



000
FTUS41 KCLE 221100
TAFMFD
TAF
KMFD 221139Z 2212/2312 34008KT 5SM BR OVC004
     FM221400 34010KT P6SM OVC008
     FM221500 36010KT P6SM OVC012
     FM221730 36010KT P6SM OVC025
     FM222000 36008KT P6SM BKN035
     FM222300 34004KT P6SM SKC
     FM230900 VRB04KT 3SM BR SKC=



000
FTUS41 KCLE 221100
TAFFDY
TAF
KFDY 221139Z 2212/2312 34006KT P6SM OVC018
     FM221500 36008KT P6SM OVC025
     FM221700 02008KT P6SM BKN035
     FM222000 02008KT P6SM SCT035
     FM222300 02004KT P6SM SKC=



000
FTUS41 KCLE 221100
TAFYNG
TAF
KYNG 221139Z 2212/2312 36010KT 6SM BR OVC004
     FM221300 36010KT P6SM OVC007
     FM221500 36010KT P6SM OVC012
     FM221700 36010KT P6SM OVC025
     FM222000 36008KT P6SM BKN035
     FM230000 34005KT P6SM BKN035=



000
FTUS41 KCLE 221000 AAA
TAFCAK
TAF AMD
KCAK 221053Z 2211/2306 36010KT P6SM OVC005
     FM221400 36010KT P6SM OVC012
     FM221800 36010KT P6SM OVC025
     FM222100 36010KT P6SM BKN035
     FM222300 36006KT P6SM SCT035=



000
FTUS41 KCLE 220900 AAB
TAFMFD
TAF AMD
KMFD 220955Z 2210/2306 32008KT 4SM BR OVC004
     FM221200 34008KT 5SM BR OVC008
     FM221400 34010KT P6SM OVC012
     FM221600 36010KT P6SM OVC015
     FM221800 36008KT P6SM OVC025
     FM222100 36008KT P6SM BKN035
     FM222300 36006KT P6SM SCT035=



000
FTUS41 KCLE 220900 AAB
TAFMFD
TAF AMD
KMFD 220955Z 2210/2306 32008KT 4SM BR OVC004
     FM221200 34008KT 5SM BR OVC008
     FM221400 34010KT P6SM OVC012
     FM221600 36010KT P6SM OVC015
     FM221800 36008KT P6SM OVC025
     FM222100 36008KT P6SM BKN035
     FM222300 36006KT P6SM SCT035=



000
FTUS41 KCLE 220900 AAA
TAFCLE
TAF AMD
KCLE 220901Z 2209/2312 02012KT P6SM OVC018
     FM221200 36010KT P6SM OVC020
     FM221700 36010KT P6SM BKN035
     FM222300 36007KT P6SM SCT035=



000
FTUS41 KCLE 220800 AAA
TAFMFD
TAF AMD
KMFD 220813Z 2208/2306 34008KT P6SM OVC008
     FM221300 34008KT P6SM OVC012
     FM221600 36010KT P6SM OVC015
     FM221800 36008KT P6SM OVC025
     FM222100 36008KT P6SM BKN035
     FM222300 36006KT P6SM SCT035=



000
FTUS41 KCLE 220800 AAA
TAFTOL
TAF AMD
KTOL 220813Z 2208/2306 34008KT P6SM OVC018
     FM221100 35006KT P6SM OVC025
     FM221400 36008KT P6SM BKN035
     FM221700 01008KT P6SM SCT035
     FM222200 01004KT P6SM SKC=



000
FTUS41 KCLE 220500
TAFCLE
TAF
KCLE 220538Z 2206/2312 36012KT P6SM OVC018
     FM221000 36010KT P6SM OVC020
     FM221700 36010KT P6SM BKN035
     FM222300 36007KT P6SM SCT035=



000
FTUS41 KCLE 220500
TAFFDY
TAF
KFDY 220538Z 2206/2306 35008KT P6SM OVC018
     FM221000 35008KT P6SM OVC025
     FM221700 02008KT P6SM BKN035
     FM222100 02006KT P6SM SCT035
     FM230000 02004KT P6SM SKC=



000
FTUS41 KCLE 220500
TAFCAK
TAF
KCAK 220538Z 2206/2306 36010KT P6SM OVC008
     FM221400 36010KT P6SM OVC012
     FM221800 36010KT P6SM OVC025
     FM222100 36010KT P6SM BKN035
     FM222300 36006KT P6SM SCT035=



000
FTUS41 KCLE 220500
TAFERI
TAF
KERI 220538Z 2206/2306 03012G20KT P6SM OVC012
     FM220900 02010KT P6SM OVC015
     FM221300 02010KT P6SM OVC025
     FM221800 02010KT P6SM OVC035
     FM230100 36007KT P6SM SCT035=



000
FTUS41 KCLE 220500
TAFMFD
TAF
KMFD 220538Z 2206/2306 34008KT P6SM OVC008
      TEMPO 2206/2209 4SM -RA BR OVC004
     FM221300 34008KT P6SM OVC012
     FM221600 36010KT P6SM OVC015
     FM221800 36008KT P6SM OVC025
     FM222100 36008KT P6SM BKN035
     FM222300 36006KT P6SM SCT035=



000
FTUS41 KCLE 220500
TAFYNG
TAF
KYNG 220538Z 2206/2306 36010KT P6SM OVC008
      TEMPO 2206/2210 5SM -RA BR
     FM221200 36010KT P6SM OVC012
     FM221700 36010KT P6SM OVC025
     FM222100 36010KT P6SM BKN035
     FM230000 34006KT P6SM BKN035=



000
FTUS41 KCLE 220500
TAFERI
TAF
KERI 220538Z 2206/2306 03012G20KT P6SM OVC012
     FM220900 02010KT P6SM OVC015
     FM221300 02010KT P6SM OVC025
     FM221800 02010KT P6SM OVC035
     FM230100 36007KT P6SM SCT035=



000
FTUS41 KCLE 220500
TAFCAK
TAF
KCAK 220538Z 2206/2306 36010KT P6SM OVC008
     FM221400 36010KT P6SM OVC012
     FM221800 36010KT P6SM OVC025
     FM222100 36010KT P6SM BKN035
     FM222300 36006KT P6SM SCT035=



000
FTUS41 KCLE 220500
TAFYNG
TAF
KYNG 220538Z 2206/2306 36010KT P6SM OVC008
      TEMPO 2206/2210 5SM -RA BR
     FM221200 36010KT P6SM OVC012
     FM221700 36010KT P6SM OVC025
     FM222100 36010KT P6SM BKN035
     FM230000 34006KT P6SM BKN035=



000
FTUS41 KCLE 220500
TAFFDY
TAF
KFDY 220538Z 2206/2306 35008KT P6SM OVC018
     FM221000 35008KT P6SM OVC025
     FM221700 02008KT P6SM BKN035
     FM222100 02006KT P6SM SCT035
     FM230000 02004KT P6SM SKC=



000
FTUS41 KCLE 220500
TAFTOL
TAF
KTOL 220538Z 2206/2306 35006KT P6SM OVC025
     FM221400 36008KT P6SM BKN035
     FM221700 01008KT P6SM SCT035
     FM222200 01004KT P6SM SKC=



000
FTUS41 KCLE 220500
TAFMFD
TAF
KMFD 220538Z 2206/2306 34008KT P6SM OVC008
      TEMPO 2206/2209 4SM -RA BR OVC004
     FM221300 34008KT P6SM OVC012
     FM221600 36010KT P6SM OVC015
     FM221800 36008KT P6SM OVC025
     FM222100 36008KT P6SM BKN035
     FM222300 36006KT P6SM SCT035=



000
FTUS41 KCLE 220500
TAFCLE
TAF
KCLE 220538Z 2206/2312 36012KT P6SM OVC018
     FM221000 36010KT P6SM OVC020
     FM221700 36010KT P6SM BKN035
     FM222300 36007KT P6SM SCT035=



000
FTUS41 KCLE 220500
TAFTOL
TAF
KTOL 220538Z 2206/2306 35006KT P6SM OVC025
     FM221400 36008KT P6SM BKN035
     FM221700 01008KT P6SM SCT035
     FM222200 01004KT P6SM SKC=



    US Dept of Commerce
    National Oceanic and Atmospheric Administration
    National Weather Service
    1325 East West Highway
    Silver Spring, MD 20910
    Page Author: NWS Internet Services Team
Disclaimer
Information Quality
Credits
Glossary
Privacy Policy
Freedom of Information Act (FOIA)
About Us
Career Opportunities